Time,TemperatureF,DewpointF,PressureIn,WindDirection,WindDirectionDegrees,WindSpeedMPH,WindSpeedGustMPH,Humidity,HourlyPrecipIn,Conditions,Clouds,dailyrainin,SoftwareType,DateUTC
2013-07-16 00:23:00,72.8,72.8,30.21,East,96,0.0,0.0,100,0.00,,,0.00,WeatherDisplay:10.37,2013-07-16 04:23:00,
2013-07-16 01:00:00,72.0,72.0,30.21,East,96,0.0,0.0,100,0.00,,,0.00,WeatherDisplay:10.37,2013-07-16 05:00:00,
2013-07-16 02:00:00,70.9,-13.9,30.21,East,96,0.0,0.0,3,0.00,CLR,,0.00,WeatherDisplay:10.37,2013-07-16 06:00:00,
2013-07-16 03:00:00,70.3,20.4,30.21,East,96,0.0,0.0,15,0.00,CLR,,0.00,WeatherDisplay:10.37,2013-07-16 07:00:00,
2013-07-16 04:00:00,69.7,8.2,30.21,East,96,0.0,0.0,9,0.00,CLR,,0.00,WeatherDisplay:10.37,2013-07-16 08:00:00,
2013-07-16 05:00:00,69.1,14.3,30.20,East,96,0.0,0.0,12,0.00,CLR,,0.00,WeatherDisplay:10.37,2013-07-16 09:00:00,
2013-07-16 06:00:00,68.7,24.8,30.21,East,96,0.0,0.0,19,0.00,CLR,,0.00,WeatherDisplay:10.37,2013-07-16 10:00:00,
2013-07-16 07:00:00,68.8,30.5,30.22,East,96,0.0,0.0,24,0.00,CLR,,0.00,WeatherDisplay:10.37,2013-07-16 11:00:00,
2013-07-16 08:00:00,70.8,50.7,30.23,East,96,0.0,0.0,49,0.00,CLR,,0.00,WeatherDisplay:10.37,2013-07-16 12:00:00,
2013-07-16 09:00:00,77.5,77.5,30.22,South,184,0.0,2.0,100,0.00,,,0.00,WeatherDisplay:10.37,2013-07-16 13:00:00,
2013-07-16 10:00:00,83.7,83.7,30.22,West,270,2.0,4.0,100,0.00,,,0.00,WeatherDisplay:10.37,2013-07-16 14:00:00,
2013-07-16 11:00:00,87.3,12.2,30.21,WNW,303,1.0,6.0,6,0.00,CLR,,0.00,WeatherDisplay:10.37,2013-07-16 15:00:00,
2013-07-16 12:00:00,89.5,32.1,30.20,WNW,298,0.0,5.0,13,0.00,CLR,,0.00,WeatherDisplay:10.37,2013-07-16 16:00:00,
2013-07-16 13:00:00,90.4,30.9,30.19,SW,236,1.0,5.0,12,0.00,CLR,,0.00,WeatherDisplay:10.37,2013-07-16 17:00:00,
2013-07-16 14:00:00,91.5,39.0,30.18,SW,220,0.0,6.0,16,0.00,CLR,,0.00,WeatherDisplay:10.37,2013-07-16 18:00:00,
2013-07-16 15:00:00,92.9,36.7,30.16,ESE,110,0.0,3.0,14,0.00,CLR,,0.00,WeatherDisplay:10.37,2013-07-16 19:00:00,
2013-07-16 16:00:00,92.7,38.3,30.15,WSW,241,0.0,5.0,15,0.00,CLR,,0.00,WeatherDisplay:10.37,2013-07-16 20:00:00,
2013-07-16 17:00:00,92.1,32.2,30.13,South,179,0.0,3.0,12,0.00,CLR,,0.00,WeatherDisplay:10.37,2013-07-16 21:00:00,
2013-07-16 18:00:00,92.2,32.3,30.13,SSW,212,0.0,3.0,12,0.00,CLR,,0.00,WeatherDisplay:10.37,2013-07-16 22:00:00,
2013-07-16 19:00:00,87.1,87.1,30.13,SSW,212,0.0,0.0,100,0.00,,,0.00,WeatherDisplay:10.37,2013-07-16 23:00:00,
2013-07-16 20:00:00,85.8,85.8,30.14,SSW,212,0.0,0.0,100,0.00,,,0.00,WeatherDisplay:10.37,2013-07-17 00:00:00,
2013-07-16 21:00:00,82.2,82.2,30.15,NW,323,0.0,3.0,100,0.00,,,0.00,WeatherDisplay:10.37,2013-07-17 01:00:00,
2013-07-16 22:00:00,79.3,79.3,30.16,WSW,258,0.0,1.0,100,0.00,,,0.00,WeatherDisplay:10.37,2013-07-17 02:00:00,
2013-07-16 23:00:00,78.1,78.1,30.15,WSW,258,0.0,0.0,100,0.00,,,0.00,WeatherDisplay:10.37,2013-07-17 03:00:00,